Time;durP1;ratioP1;P1;durP2;ratioP2;P2;SDS_P1;SDS_P2;PMS_P1;PMS_P2;Temp;Humidity;BMP_temperature;BMP_pressure;BME280_temperature;BME280_humidity;BME280_pressure;Samples;Min_cycle;Max_cycle;Signal;HPM_P1;HPM_P2
2023/12/06 00:00:20;;;;;;;12.05;8.05;;;;;;;5.90;59.94;100235.00;667318;29;1174;-89
2023/12/06 00:00:41;;;;;;;11.80;7.88;;;;;;;5.84;59.79;100225.25;667343;29;1160;-87
2023/12/06 00:01:02;;;;;;;10.65;7.90;;;;;;;5.87;59.78;100227.09;667978;29;1185;-87
2023/12/06 00:01:22;;;;;;;12.57;8.35;;;;;;;5.89;59.98;100228.03;667685;29;1708;-87
2023/12/06 00:01:43;;;;;;;14.93;8.53;;;;;;;5.87;60.10;100235.75;667021;29;1204;-87
2023/12/06 00:02:04;;;;;;;15.20;8.43;;;;;;;5.91;60.37;100236.75;672356;29;1234;-88
2023/12/06 00:02:25;;;;;;;17.10;9.00;;;;;;;5.84;59.83;100235.63;674790;29;1251;-87
2023/12/06 00:02:49;;;;;;;17.48;9.68;;;;;;;5.83;59.73;100228.69;676894;29;1299;-87
2023/12/06 00:03:10;;;;;;;16.17;9.82;;;;;;;5.87;60.08;100234.84;672306;29;1188;-88
2023/12/06 00:03:31;;;;;;;15.23;9.50;;;;;;;5.92;60.05;100243.69;664550;29;1678;-87
2023/12/06 00:03:52;;;;;;;13.33;8.77;;;;;;;5.94;60.06;100231.69;674886;29;1171;-88
2023/12/06 00:04:12;;;;;;;14.65;8.38;;;;;;;5.93;59.98;100235.09;674334;29;1179;-88
2023/12/06 00:04:33;;;;;;;15.15;8.68;;;;;;;5.97;59.88;100238.69;670218;29;1653;-88
2023/12/06 00:04:53;;;;;;;15.32;8.98;;;;;;;5.91;59.45;100221.22;669871;29;1229;-88
2023/12/06 00:05:15;;;;;;;14.35;8.80;;;;;;;5.92;59.80;100222.97;668523;29;1200;-87
2023/12/06 00:05:36;;;;;;;13.70;9.05;;;;;;;5.95;59.62;100240.34;667164;29;1183;-88
2023/12/06 00:05:56;;;;;;;12.55;8.70;;;;;;;5.95;59.82;100241.22;666963;29;1153;-88
2023/12/06 00:06:18;;;;;;;11.77;8.85;;;;;;;5.95;59.84;100242.94;667162;29;1472;-88
2023/12/06 00:06:38;;;;;;;14.57;8.73;;;;;;;5.93;59.64;100240.28;670633;29;1057;-88
2023/12/06 00:06:59;;;;;;;15.53;9.00;;;;;;;5.91;59.86;100234.16;667690;29;1026;-88
2023/12/06 00:07:19;;;;;;;15.82;8.80;;;;;;;5.94;59.48;100230.81;668957;29;1294;-88
2023/12/06 00:07:40;;;;;;;12.95;8.52;;;;;;;5.96;59.87;100244.69;667681;29;1172;-87
2023/12/06 00:08:01;;;;;;;12.35;8.68;;;;;;;5.89;60.11;100238.38;672305;29;1233;-88
2023/12/06 00:08:21;;;;;;;13.30;9.00;;;;;;;5.92;59.97;100241.09;671877;29;1248;-86
2023/12/06 00:08:42;;;;;;;12.30;8.75;;;;;;;5.80;59.63;100236.34;673455;29;1458;-88
2023/12/06 00:09:03;;;;;;;11.82;8.55;;;;;;;5.82;59.88;100249.34;672146;29;1170;-88
2023/12/06 00:09:24;;;;;;;11.40;8.30;;;;;;;5.93;59.75;100247.16;677373;29;1066;-87
2023/12/06 00:09:45;;;;;;;13.70;8.40;;;;;;;5.93;59.64;100240.28;672590;29;1281;-88
2023/12/06 00:10:06;;;;;;;15.00;8.50;;;;;;;5.93;59.98;100237.69;672349;29;1246;-87
2023/12/06 00:10:27;;;;;;;16.08;9.00;;;;;;;5.90;59.89;100242.75;669562;29;1094;-88
2023/12/06 00:10:48;;;;;;;16.83;9.43;;;;;;;5.95;59.96;100238.63;674221;29;1231;-89
2023/12/06 00:11:09;;;;;;;15.35;9.10;;;;;;;5.98;59.75;100248.22;671728;29;1271;-88
2023/12/06 00:11:30;;;;;;;15.18;8.80;;;;;;;5.88;59.78;100234.94;669369;29;1339;-87
2023/12/06 00:11:51;;;;;;;14.43;8.77;;;;;;;5.91;59.86;100241.94;667069;29;1380;-88
2023/12/06 00:12:12;;;;;;;13.50;8.80;;;;;;;5.95;59.69;100248.97;667137;29;1117;-87
2023/12/06 00:12:33;;;;;;;13.10;8.82;;;;;;;5.81;59.79;100237.19;669463;29;1192;-88
2023/12/06 00:12:53;;;;;;;14.13;9.00;;;;;;;5.83;60.12;100228.69;672012;29;1126;-88
2023/12/06 00:13:14;;;;;;;14.02;8.95;;;;;;;5.90;59.60;100242.75;670173;29;1203;-87
2023/12/06 00:13:36;;;;;;;15.68;9.40;;;;;;;5.89;59.87;100249.63;675165;29;1165;-88
2023/12/06 00:13:56;;;;;;;16.27;9.48;;;;;;;5.89;59.66;100241.88;675902;29;1497;-88
2023/12/06 00:14:17;;;;;;;15.90;9.43;;;;;;;5.87;59.82;100247.81;669751;29;952;-88
2023/12/06 00:14:38;;;;;;;12.60;8.77;;;;;;;5.92;60.15;100251.47;665753;29;1283;-88
2023/12/06 00:14:59;;;;;;;13.52;8.90;;;;;;;5.89;59.97;100243.56;669576;29;1184;-88
2023/12/06 00:15:19;;;;;;;18.08;9.20;;;;;;;5.93;59.74;100240.28;671995;29;1443;-88
2023/12/06 00:15:40;;;;;;;19.33;9.50;;;;;;;5.92;59.82;100238.53;671974;29;1186;-88
2023/12/06 00:16:01;;;;;;;19.10;9.63;;;;;;;5.93;59.94;100242.88;672318;29;1984;-88
2023/12/06 00:16:22;;;;;;;16.45;9.15;;;;;;;5.97;59.84;100255.13;669802;29;1519;-88
2023/12/06 00:16:43;;;;;;;15.45;9.07;;;;;;;6.00;59.77;100251.75;667422;29;1302;-89
2023/12/06 00:17:03;;;;;;;15.93;9.38;;;;;;;5.95;59.86;100243.81;666854;29;1325;-88
2023/12/06 00:17:24;;;;;;;16.47;9.70;;;;;;;5.89;59.73;100234.09;669312;29;1292;-86
2023/12/06 00:17:45;;;;;;;17.00;9.68;;;;;;;5.93;59.88;100239.38;671258;29;1187;-87
2023/12/06 00:18:25;;;;;;;14.95;9.43;;;;;;;5.93;59.89;100245.47;671171;29;1338;-88
2023/12/06 00:18:45;;;;;;;16.58;8.90;;;;;;;5.88;60.04;100241.81;669964;29;1252;-88
2023/12/06 00:19:06;;;;;;;16.77;8.80;;;;;;;5.94;59.80;100254.13;672206;29;1075;-87
2023/12/06 00:19:27;;;;;;;13.10;8.70;;;;;;;5.91;59.66;100249.72;670788;29;1633;-88
2023/12/06 00:19:48;;;;;;;13.47;8.50;;;;;;;5.88;59.93;100241.81;669630;29;1235;-88
2023/12/06 00:20:12;;;;;;;12.50;8.00;;;;;;;5.89;59.80;100246.16;669178;29;1310;-88
2023/12/06 00:20:32;;;;;;;16.10;8.77;;;;;;;5.77;59.81;100248.28;669247;29;1396;-88
2023/12/06 00:20:53;;;;;;;15.75;8.68;;;;;;;5.79;60.07;100246.63;667135;29;1185;-89
2023/12/06 00:21:14;;;;;;;14.85;8.70;;;;;;;5.90;59.44;100260.91;669124;29;1174;-87
2023/12/06 00:21:35;;;;;;;14.38;8.60;;;;;;;5.81;59.96;100247.56;667118;29;1168;-87
2023/12/06 00:21:57;;;;;;;16.67;9.32;;;;;;;5.85;59.98;100250.38;669599;29;1674;-87
2023/12/06 00:22:18;;;;;;;18.88;9.63;;;;;;;5.84;59.82;100245.97;664526;29;1711;-88
2023/12/06 00:22:39;;;;;;;18.00;9.40;;;;;;;5.78;59.91;100238.00;669655;29;1175;-87
2023/12/06 00:22:59;;;;;;;17.83;9.15;;;;;;;5.80;59.91;100251.88;670453;29;1290;-88
2023/12/06 00:23:20;;;;;;;17.60;9.65;;;;;;;5.77;59.89;100237.94;666958;29;1191;-88
2023/12/06 00:23:41;;;;;;;16.38;9.63;;;;;;;5.86;59.89;100246.94;670318;29;1360;-88
2023/12/06 00:24:04;;;;;;;13.95;9.00;;;;;;;5.92;59.89;100247.97;672160;29;1151;-87
2023/12/06 00:24:25;;;;;;;15.60;8.95;;;;;;;5.86;59.68;100244.34;674551;29;1097;-88
2023/12/06 00:26:31;;;;;;;14.23;8.05;;;;;;;5.94;59.39;100242.03;677969;29;1249;-88
2023/12/06 00:26:52;;;;;;;15.40;8.45;;;;;;;5.99;59.57;100250.88;673687;29;1717;-87
2023/12/06 00:27:13;;;;;;;14.48;8.65;;;;;;;5.95;59.78;100238.63;672215;29;1010;-88
2023/12/06 00:27:34;;;;;;;15.90;9.07;;;;;;;5.98;59.61;100248.22;668889;29;1231;-88
2023/12/06 00:27:55;;;;;;;16.73;9.40;;;;;;;5.99;59.45;100244.81;666711;29;1517;-87
2023/12/06 00:28:16;;;;;;;17.85;9.80;;;;;;;6.00;59.59;100246.56;667075;29;1096;-89
2023/12/06 00:28:37;;;;;;;15.13;9.75;;;;;;;5.93;59.35;100245.47;667863;29;1238;-87
2023/12/06 00:28:57;;;;;;;15.52;9.65;;;;;;;5.98;59.70;100254.31;666982;29;1196;-88
2023/12/06 00:29:18;;;;;;;14.37;9.07;;;;;;;5.91;59.38;100243.63;664516;29;1114;-88
2023/12/06 00:29:39;;;;;;;15.00;9.25;;;;;;;5.94;59.76;100254.13;664119;29;1331;-87
2023/12/06 00:30:00;;;;;;;14.25;9.10;;;;;;;5.94;59.72;100265.34;669681;29;1059;-88
2023/12/06 00:30:21;;;;;;;13.93;9.38;;;;;;;5.89;59.73;100249.63;666916;29;1240;-88
2023/12/06 00:30:41;;;;;;;14.65;9.23;;;;;;;5.94;60.00;100254.13;668054;29;1214;-88
2023/12/06 00:31:02;;;;;;;15.33;9.50;;;;;;;5.95;59.63;100256.75;670491;29;1180;-88
2023/12/06 00:31:23;;;;;;;14.48;9.20;;;;;;;5.92;59.64;100248.88;672104;29;1300;-88
2023/12/06 00:31:44;;;;;;;13.25;9.40;;;;;;;5.98;59.75;100261.19;672154;29;799;-88
2023/12/06 00:32:04;;;;;;;13.23;9.03;;;;;;;5.89;59.36;100243.56;672140;29;1224;-88
2023/12/06 00:32:25;;;;;;;14.00;9.00;;;;;;;5.94;59.33;100257.59;671802;29;1706;-87
2023/12/06 00:32:46;;;;;;;14.68;8.70;;;;;;;5.90;59.67;100253.13;666721;29;1437;-88
2023/12/06 00:33:07;;;;;;;14.80;9.30;;;;;;;5.89;59.72;100251.34;669637;29;1312;-88
2023/12/06 00:33:28;;;;;;;14.07;9.25;;;;;;;5.92;60.14;100254.06;666924;29;1619;-88
2023/12/06 00:33:49;;;;;;;15.00;9.75;;;;;;;5.93;59.33;100252.34;672216;29;1191;-89
2023/12/06 00:34:10;;;;;;;15.13;9.45;;;;;;;5.92;59.76;100254.06;674691;29;976;-87
2023/12/06 00:34:30;;;;;;;18.13;9.95;;;;;;;5.91;59.56;100252.28;674502;29;1551;-87
2023/12/06 00:34:51;;;;;;;16.80;9.33;;;;;;;5.97;59.56;100260.31;674583;29;1088;-88
2023/12/06 00:35:12;;;;;;;15.90;9.20;;;;;;;5.93;59.36;100261.00;672023;29;1432;-87
2023/12/06 00:35:33;;;;;;;13.15;8.65;;;;;;;5.86;59.85;100257.31;671018;29;1171;-88
2023/12/06 00:35:54;;;;;;;16.00;10.00;;;;;;;5.91;59.89;100270.44;668385;29;1917;-87
2023/12/06 00:36:15;;;;;;;14.65;9.88;;;;;;;5.78;59.78;100252.63;667014;29;1291;-87
2023/12/06 00:36:36;;;;;;;16.17;10.10;;;;;;;5.82;59.58;100255.41;670463;29;963;-88
2023/12/06 00:36:56;;;;;;;17.17;9.60;;;;;;;5.81;59.72;100257.91;672089;29;1275;-87
2023/12/06 00:37:17;;;;;;;20.47;10.07;;;;;;;5.84;59.64;100261.50;672946;29;1289;-88
2023/12/06 00:37:38;;;;;;;23.02;10.55;;;;;;;5.85;59.54;100265.00;667202;29;1205;-87
2023/12/06 00:37:59;;;;;;;19.75;10.20;;;;;;;5.80;59.64;100254.47;669609;29;1267;-88
2023/12/06 00:38:19;;;;;;;17.48;9.60;;;;;;;5.84;59.36;100265.81;669225;29;1166;-87
2023/12/06 00:38:40;;;;;;;15.73;9.10;;;;;;;5.72;59.97;100261.06;669394;29;1211;-88
2023/12/06 00:39:01;;;;;;;17.40;9.35;;;;;;;5.72;59.65;100259.31;669528;29;1472;-87
2023/12/06 00:39:23;;;;;;;18.92;10.07;;;;;;;5.76;59.82;100247.38;666935;29;1271;-88
2023/12/06 00:39:43;;;;;;;19.45;10.80;;;;;;;5.78;60.18;100260.41;665641;29;1204;-87
2023/12/06 00:40:05;;;;;;;18.48;10.45;;;;;;;5.79;59.73;100263.06;669364;29;1199;-88
2023/12/06 00:40:25;;;;;;;18.42;10.10;;;;;;;5.75;59.75;100256.88;668005;29;1413;-89
2023/12/06 00:40:46;;;;;;;17.50;9.60;;;;;;;5.81;60.10;100274.34;666579;29;1392;-87
2023/12/06 00:41:07;;;;;;;17.48;9.90;;;;;;;5.75;59.88;100256.88;669686;29;1070;-88
2023/12/06 00:41:27;;;;;;;17.95;10.25;;;;;;;5.84;59.93;100268.41;669311;29;1207;-89
2023/12/06 00:41:48;;;;;;;17.10;10.10;;;;;;;5.77;59.72;100248.28;668660;29;1239;-87
2023/12/06 00:42:09;;;;;;;19.43;10.17;;;;;;;5.79;59.65;100264.75;669846;29;1220;-88
2023/12/06 00:42:29;;;;;;;20.55;9.90;;;;;;;5.83;59.87;100261.47;674877;29;1204;-88
2023/12/06 00:42:50;;;;;;;20.67;10.00;;;;;;;5.75;59.82;100254.28;675071;29;1135;-88
2023/12/06 00:43:11;;;;;;;19.37;9.53;;;;;;;5.75;59.73;100253.38;668123;29;1671;-88
2023/12/06 00:43:32;;;;;;;21.05;9.68;;;;;;;5.84;60.01;100264.09;671916;29;1387;-87
2023/12/06 00:43:53;;;;;;;23.50;10.17;;;;;;;5.80;59.59;100254.47;674596;29;1376;-87
2023/12/06 00:44:14;;;;;;;20.27;10.30;;;;;;;5.78;59.58;100252.63;672107;29;1741;-88
2023/12/06 00:44:35;;;;;;;16.65;10.23;;;;;;;5.77;59.74;100250.88;673509;29;1638;-88
2023/12/06 00:44:56;;;;;;;15.45;10.00;;;;;;;5.80;59.98;100263.94;669613;29;878;-88
2023/12/06 00:45:17;;;;;;;16.30;9.85;;;;;;;5.74;60.06;100249.94;668392;29;1032;-88
2023/12/06 00:45:38;;;;;;;16.70;9.98;;;;;;;5.81;59.92;100257.91;666814;29;1263;-87
2023/12/06 00:45:59;;;;;;;16.08;9.90;;;;;;;5.82;60.15;100251.94;673799;29;1178;-88
2023/12/06 00:46:19;;;;;;;16.92;10.02;;;;;;;5.86;59.78;100259.91;671929;29;1269;-87
2023/12/06 00:46:40;;;;;;;16.63;9.80;;;;;;;5.86;59.58;100259.00;668066;29;1157;-87
2023/12/06 00:47:01;;;;;;;17.83;9.47;;;;;;;5.86;59.52;100264.19;664678;29;798;-88
2023/12/06 00:47:21;;;;;;;16.67;9.38;;;;;;;5.86;59.76;100264.19;664257;29;1193;-87
2023/12/06 00:47:43;;;;;;;15.43;9.27;;;;;;;5.90;60.03;100266.06;668765;29;1213;-87
2023/12/06 00:48:04;;;;;;;15.70;9.77;;;;;;;5.80;59.87;100256.16;672346;29;1184;-88
2023/12/06 00:48:25;;;;;;;20.23;9.90;;;;;;;5.84;59.66;100260.66;666793;29;1029;-88
2023/12/06 00:48:45;;;;;;;22.67;10.48;;;;;;;5.81;59.38;100251.03;666790;29;1237;-87
2023/12/06 00:49:06;;;;;;;21.27;10.13;;;;;;;5.86;59.84;100269.34;669101;29;1299;-88
2023/12/06 00:49:26;;;;;;;17.65;10.05;;;;;;;5.84;59.78;100264.09;672003;29;1419;-89
2023/12/06 00:49:47;;;;;;;17.37;10.23;;;;;;;5.87;59.89;100276.28;669642;29;1199;-88
2023/12/06 00:50:08;;;;;;;18.38;10.90;;;;;;;5.81;59.50;100263.09;666446;29;1211;-88
2023/12/06 00:50:29;;;;;;;18.85;10.90;;;;;;;5.85;59.84;100272.78;664127;29;1245;-88
2023/12/06 00:50:49;;;;;;;17.52;10.50;;;;;;;5.81;59.69;100270.88;664446;29;1327;-87
2023/12/06 00:51:10;;;;;;;17.63;10.23;;;;;;;5.81;59.97;100270.88;668928;29;1276;-89
2023/12/06 00:51:31;;;;;;;17.25;10.25;;;;;;;5.79;59.89;100263.06;669348;29;1312;-89
2023/12/06 00:51:52;;;;;;;16.60;10.00;;;;;;;5.84;60.10;100263.25;665956;29;1519;-88
2023/12/06 00:52:12;;;;;;;15.52;10.02;;;;;;;5.83;59.44;100267.53;666975;29;1100;-88
2023/12/06 00:52:33;;;;;;;18.30;10.25;;;;;;;5.83;59.75;100266.66;669156;29;1101;-87
2023/12/06 00:52:53;;;;;;;21.60;10.02;;;;;;;5.82;59.45;100264.88;672104;29;1321;-88
2023/12/06 00:53:14;;;;;;;20.73;10.30;;;;;;;5.80;59.58;100269.09;671283;29;1157;-87
2023/12/06 00:53:35;;;;;;;20.58;10.52;;;;;;;5.77;59.87;100253.47;666759;29;1572;-88
2023/12/06 00:53:56;;;;;;;20.38;10.95;;;;;;;5.82;59.63;100267.47;663970;29;1194;-87
2023/12/06 00:54:17;;;;;;;19.52;10.05;;;;;;;5.80;59.75;100270.00;664455;29;1160;-88
2023/12/06 00:54:37;;;;;;;16.50;9.80;;;;;;;5.80;59.82;100259.66;667138;29;1283;-88
2023/12/06 00:55:00;;;;;;;15.57;10.25;;;;;;;5.80;59.90;100269.09;666519;29;1452;-90
2023/12/06 00:55:21;;;;;;;16.83;10.50;;;;;;;5.80;59.69;100269.09;664302;29;1080;-88
2023/12/06 00:55:42;;;;;;;17.08;10.32;;;;;;;5.72;59.96;100263.63;664177;29;1180;-88
2023/12/06 00:56:03;;;;;;;17.60;10.13;;;;;;;5.79;59.71;100272.53;669179;29;1522;-86
2023/12/06 00:56:23;;;;;;;18.13;10.27;;;;;;;5.79;59.93;100268.25;666899;29;1196;-87
2023/12/06 00:56:44;;;;;;;17.17;10.07;;;;;;;5.76;59.83;100262.91;671943;29;1256;-88
2023/12/06 00:57:06;;;;;;;16.45;10.05;;;;;;;5.77;59.54;100258.63;671930;29;1234;-87
2023/12/06 00:57:26;;;;;;;16.15;10.23;;;;;;;5.79;59.87;100267.34;670953;29;1473;-87
2023/12/06 00:57:47;;;;;;;16.50;10.23;;;;;;;5.73;59.57;100258.53;669307;29;1183;-87
2023/12/06 00:58:13;;;;;;;18.60;10.25;;;;;;;5.79;59.92;100264.75;672295;29;832;-86
2023/12/06 00:58:34;;;;;;;19.05;10.18;;;;;;;5.79;59.68;100262.16;669482;29;1158;-88
2023/12/06 00:58:54;;;;;;;18.50;9.73;;;;;;;5.72;59.73;100269.69;669596;29;1458;-87
2023/12/06 00:59:15;;;;;;;16.33;9.13;;;;;;;5.67;59.39;100266.06;671981;29;1167;-87
2023/12/06 00:59:36;;;;;;;16.07;9.60;;;;;;;5.71;60.08;100265.34;671768;29;1547;-87
2023/12/06 00:59:57;;;;;;;16.03;10.20;;;;;;;5.71;60.03;100262.75;664656;29;766;-88
2023/12/06 01:00:18;;;;;;;16.37;10.57;;;;;;;5.77;59.73;100275.03;670508;29;1156;-90
2023/12/06 01:00:39;;;;;;;16.88;10.40;;;;;;;5.65;60.32;100269.38;674519;29;1187;-88
2023/12/06 01:01:00;;;;;;;16.63;10.25;;;;;;;5.72;59.80;100276.59;672033;29;1305;-87
2023/12/06 01:01:21;;;;;;;16.60;10.60;;;;;;;5.65;59.83;100279.75;671843;29;1113;-88
2023/12/06 01:01:42;;;;;;;14.88;10.32;;;;;;;5.54;60.30;100269.84;670911;29;1524;-88
2023/12/06 01:02:03;;;;;;;15.50;10.27;;;;;;;5.59;60.52;100265.72;669519;29;1209;-87
2023/12/06 01:02:25;;;;;;;16.88;10.35;;;;;;;5.65;60.28;100271.97;669431;29;1236;-88
2023/12/06 01:02:46;;;;;;;20.17;10.18;;;;;;;5.63;60.00;100271.03;672482;29;1392;-88
2023/12/06 01:03:06;;;;;;;19.33;9.75;;;;;;;5.67;60.25;100272.91;669374;29;1209;-87
2023/12/06 01:03:27;;;;;;;15.60;9.10;;;;;;;5.66;60.31;100271.16;671855;29;1058;-88
2023/12/06 01:03:48;;;;;;;14.80;9.40;;;;;;;5.71;60.15;100270.50;674562;29;1273;-87
2023/12/06 01:04:08;;;;;;;12.70;8.98;;;;;;;5.72;60.22;100277.44;669645;29;1136;-86
2023/12/06 01:04:29;;;;;;;12.95;9.18;;;;;;;5.70;59.73;100258.38;669384;29;1470;-88
2023/12/06 01:04:50;;;;;;;13.30;8.95;;;;;;;5.74;59.97;100270.66;672378;29;1295;-87
2023/12/06 01:05:11;;;;;;;15.80;9.68;;;;;;;5.71;59.93;100265.34;673420;29;1352;-88
2023/12/06 01:05:32;;;;;;;15.93;9.15;;;;;;;5.82;59.99;100276.13;669441;29;1184;-87
2023/12/06 01:05:54;;;;;;;15.23;9.48;;;;;;;5.80;59.98;100267.41;671894;29;1248;-88
2023/12/06 01:06:15;;;;;;;14.55;8.85;;;;;;;5.81;59.61;100274.34;664453;29;1264;-88
2023/12/06 01:06:36;;;;;;;15.80;9.70;;;;;;;5.79;59.77;100275.13;669574;29;1108;-87
2023/12/06 01:06:56;;;;;;;16.30;9.60;;;;;;;5.83;60.07;100282.19;669511;29;1223;-87
2023/12/06 01:07:17;;;;;;;17.13;9.85;;;;;;;5.83;59.89;100288.25;667548;29;1160;-87
2023/12/06 01:07:38;;;;;;;15.68;9.52;;;;;;;5.80;59.79;100264.81;669663;29;995;-87
2023/12/06 01:07:59;;;;;;;17.30;9.70;;;;;;;5.80;59.77;100277.78;671207;29;1197;-86
2023/12/06 01:08:19;;;;;;;16.50;9.50;;;;;;;5.84;59.60;100281.38;672038;29;1126;-87
2023/12/06 01:08:41;;;;;;;18.23;10.10;;;;;;;5.81;59.83;100276.94;669429;29;1080;-88
2023/12/06 01:09:03;;;;;;;16.85;10.30;;;;;;;5.83;59.57;100275.28;669491;29;1388;-88
2023/12/06 01:09:23;;;;;;;16.55;9.93;;;;;;;5.82;59.88;100273.53;664379;29;1348;-88
2023/12/06 01:09:45;;;;;;;13.77;9.43;;;;;;;5.80;59.70;100271.69;666724;29;1170;-87
2023/12/06 01:10:06;;;;;;;15.60;9.82;;;;;;;5.85;59.97;100283.13;668072;29;1279;-87
2023/12/06 01:10:27;;;;;;;15.63;10.05;;;;;;;5.88;59.96;100281.53;669225;29;1487;-89
2023/12/06 01:10:47;;;;;;;15.95;9.88;;;;;;;5.88;59.79;100283.22;671962;29;1254;-88
2023/12/06 01:11:08;;;;;;;15.98;9.95;;;;;;;5.89;59.85;100280.72;669579;29;1204;-88
2023/12/06 01:11:29;;;;;;;17.00;9.73;;;;;;;5.84;59.90;100271.88;672010;29;1329;-88
2023/12/06 01:11:50;;;;;;;17.33;9.57;;;;;;;5.75;59.56;100280.19;673891;29;1266;-87
2023/12/06 01:12:11;;;;;;;15.85;9.13;;;;;;;5.80;59.56;100279.47;674557;29;1234;-88
2023/12/06 01:12:32;;;;;;;15.00;8.87;;;;;;;5.78;59.87;100283.72;672014;29;903;-88
2023/12/06 01:12:53;;;;;;;13.98;8.63;;;;;;;5.80;59.61;100280.34;669174;29;1287;-88
2023/12/06 01:13:14;;;;;;;15.40;9.30;;;;;;;5.79;59.70;100277.69;670145;29;1274;-89
2023/12/06 01:14:21;;;;;;;15.35;9.75;;;;;;;5.92;59.67;100295.50;666612;29;1615;-87
2023/12/06 01:14:44;;;;;;;13.55;9.35;;;;;;;5.77;59.69;100284.53;669372;29;1101;-87
2023/12/06 01:15:06;;;;;;;13.60;9.27;;;;;;;5.85;59.87;100293.50;666902;29;1431;-87
2023/12/06 01:15:55;;;;;;;14.85;9.57;;;;;;;5.83;59.78;100297.72;670583;29;1296;-88
2023/12/06 01:16:16;;;;;;;13.52;9.00;;;;;;;5.71;60.06;100280.88;669468;29;1100;-88
2023/12/06 01:16:37;;;;;;;13.23;9.10;;;;;;;5.77;59.82;100287.13;668527;29;1096;-88
2023/12/06 01:16:57;;;;;;;13.87;9.13;;;;;;;5.70;59.77;100284.28;669621;29;967;-88
2023/12/06 01:17:18;;;;;;;16.58;9.40;;;;;;;5.67;59.96;100284.16;664535;29;1232;-87
2023/12/06 01:17:39;;;;;;;17.58;9.60;;;;;;;5.71;59.92;100293.81;672053;29;1053;-87
2023/12/06 01:17:59;;;;;;;16.02;9.00;;;;;;;5.75;59.77;100298.31;669542;29;1280;-87
2023/12/06 01:18:20;;;;;;;13.95;8.82;;;;;;;5.64;60.21;100288.34;671791;29;1296;-87
2023/12/06 01:18:41;;;;;;;14.00;8.93;;;;;;;5.71;60.08;100295.53;666917;29;1053;-87
2023/12/06 01:19:02;;;;;;;14.52;9.00;;;;;;;5.66;60.32;100285.00;669554;29;1068;-88
2023/12/06 01:19:23;;;;;;;14.05;8.85;;;;;;;5.68;60.11;100296.28;672042;29;1142;-87
2023/12/06 01:19:43;;;;;;;12.50;8.40;;;;;;;5.67;59.76;100293.63;669444;29;1085;-87
2023/12/06 01:20:06;;;;;;;12.43;8.53;;;;;;;5.68;60.06;100301.47;671970;29;1499;-87
2023/12/06 01:20:26;;;;;;;14.60;8.70;;;;;;;5.69;60.09;100292.88;669333;29;1387;-88
2023/12/06 01:20:47;;;;;;;16.00;9.07;;;;;;;5.75;59.90;100300.91;669375;29;1270;-87
2023/12/06 01:21:08;;;;;;;16.50;9.30;;;;;;;5.66;59.96;100287.59;669445;29;1145;-87
2023/12/06 01:21:29;;;;;;;14.68;9.35;;;;;;;5.72;59.84;100300.75;669051;29;1185;-88
2023/12/06 01:21:49;;;;;;;15.20;9.43;;;;;;;5.72;59.57;100298.16;668644;29;1200;-87
2023/12/06 01:22:10;;;;;;;14.87;9.33;;;;;;;5.72;59.91;100300.75;667280;29;1161;-88
2023/12/06 01:22:30;;;;;;;13.73;8.60;;;;;;;5.74;59.55;100300.81;666734;29;1601;-87
2023/12/06 01:22:51;;;;;;;12.43;8.05;;;;;;;5.71;59.90;100286.03;671626;29;1144;-88
2023/12/06 01:23:12;;;;;;;12.48;8.20;;;;;;;5.71;60.08;100296.41;672196;29;1322;-88
2023/12/06 01:23:32;;;;;;;14.23;8.77;;;;;;;5.74;59.93;100293.94;669450;29;1158;-88
2023/12/06 01:23:54;;;;;;;15.85;9.50;;;;;;;5.78;59.90;100292.38;674515;29;1129;-88
2023/12/06 01:24:15;;;;;;;16.67;9.20;;;;;;;5.81;59.79;100291.59;666986;29;1049;-88
2023/12/06 01:24:36;;;;;;;16.50;9.18;;;;;;;5.79;60.05;100293.25;671986;29;1198;-87
2023/12/06 01:24:58;;;;;;;16.10;9.23;;;;;;;5.74;59.71;100286.19;672086;29;803;-88
2023/12/06 01:25:18;;;;;;;14.75;9.07;;;;;;;5.84;59.70;100302.94;671844;29;1246;-87
2023/12/06 01:25:39;;;;;;;13.02;8.60;;;;;;;5.82;59.69;100302.00;668839;29;1057;-88
2023/12/06 01:26:00;;;;;;;12.43;8.57;;;;;;;5.75;60.15;100312.94;669707;29;800;-89
2023/12/06 01:26:20;;;;;;;11.15;8.23;;;;;;;5.71;59.75;100308.47;671115;29;1258;-88
2023/12/06 01:26:41;;;;;;;12.02;8.25;;;;;;;5.69;59.83;100297.16;668872;29;1228;-87
2023/12/06 01:27:04;;;;;;;12.48;8.25;;;;;;;5.75;59.88;100312.94;674732;29;1495;-87
2023/12/06 01:27:25;;;;;;;16.52;8.70;;;;;;;5.77;59.69;100305.25;671751;29;1360;-87
2023/12/06 01:27:45;;;;;;;16.23;8.53;;;;;;;5.80;59.89;100295.00;671934;29;1460;-88
2023/12/06 01:28:06;;;;;;;16.50;8.52;;;;;;;5.81;59.75;100302.84;669640;29;1028;-87
2023/12/06 01:28:27;;;;;;;13.02;8.68;;;;;;;5.82;59.99;100314.97;668640;29;1195;-88
2023/12/06 01:28:47;;;;;;;12.83;8.83;;;;;;;5.74;59.56;100306.91;669302;29;1270;-87
2023/12/06 01:29:09;;;;;;;12.02;8.65;;;;;;;5.78;59.49;100307.00;669484;29;1403;-88
2023/12/06 01:29:29;;;;;;;12.10;8.38;;;;;;;5.84;59.36;100317.63;672305;29;1302;-88
2023/12/06 01:29:50;;;;;;;10.50;7.43;;;;;;;5.74;59.78;100293.94;667450;29;1116;-87
2023/12/06 01:30:11;;;;;;;10.35;7.13;;;;;;;5.75;59.42;100308.66;669333;29;1454;-88
2023/12/06 01:30:32;;;;;;;11.00;7.18;;;;;;;5.84;59.78;100312.44;669403;29;1251;-88
2023/12/06 01:30:53;;;;;;;12.83;7.97;;;;;;;5.82;59.71;100319.28;666864;29;1195;-88
2023/12/06 01:31:13;;;;;;;13.30;7.97;;;;;;;5.76;59.33;100304.34;666951;29;1144;-88
2023/12/06 01:31:34;;;;;;;13.50;8.25;;;;;;;5.72;59.49;100313.69;666788;29;1267;-88
2023/12/06 01:31:54;;;;;;;12.97;8.37;;;;;;;5.73;59.91;100317.19;671695;29;1194;-87
2023/12/06 01:32:15;;;;;;;12.13;8.15;;;;;;;5.65;59.63;100309.09;667396;29;1077;-88
2023/12/06 01:32:36;;;;;;;11.10;7.60;;;;;;;5.66;59.71;100312.56;671827;29;1167;-87
2023/12/06 01:32:57;;;;;;;10.57;7.05;;;;;;;5.62;59.58;100314.16;667866;29;1274;-88
2023/12/06 01:33:18;;;;;;;11.85;7.55;;;;;;;5.65;59.71;100310.81;669037;29;1350;-88
2023/12/06 01:33:38;;;;;;;14.27;8.15;;;;;;;5.66;59.95;100308.28;668906;29;1159;-88
2023/12/06 01:34:00;;;;;;;16.10;8.30;;;;;;;5.71;59.83;100311.06;673973;29;1183;-87
2023/12/06 01:34:21;;;;;;;14.60;7.95;;;;;;;5.71;59.86;100321.44;673383;29;1271;-87
2023/12/06 01:34:42;;;;;;;12.82;7.88;;;;;;;5.72;59.40;100313.69;667673;29;1078;-87
2023/12/06 01:35:03;;;;;;;12.77;8.50;;;;;;;5.74;59.95;100322.44;669700;29;1140;-87
2023/12/06 01:35:24;;;;;;;12.93;8.48;;;;;;;5.70;59.91;100320.53;671262;29;1254;-88
2023/12/06 01:35:45;;;;;;;12.90;8.48;;;;;;;5.82;59.51;100340.00;675625;29;1935;-88
2023/12/06 01:36:07;;;;;;;11.52;8.27;;;;;;;5.69;59.76;100323.03;669306;29;1300;-87
2023/12/06 01:36:28;;;;;;;12.88;8.23;;;;;;;5.62;59.80;100316.75;669371;29;1103;-87
2023/12/06 01:36:48;;;;;;;14.35;8.07;;;;;;;5.61;59.91;100322.75;670062;29;1586;-87
2023/12/06 01:37:09;;;;;;;14.47;8.30;;;;;;;5.59;59.76;100322.69;669484;29;976;-88
2023/12/06 01:37:30;;;;;;;11.73;7.80;;;;;;;5.58;59.57;100320.03;669849;29;1154;-87
2023/12/06 01:37:50;;;;;;;9.45;7.57;;;;;;;5.63;59.75;100317.66;670105;29;1186;-87
2023/12/06 01:38:11;;;;;;;9.57;7.00;;;;;;;5.68;59.60;100324.75;672192;29;1117;-87
2023/12/06 01:38:32;;;;;;;11.93;7.85;;;;;;;5.65;60.12;100324.63;672017;29;1314;-88
2023/12/06 01:38:53;;;;;;;12.93;8.27;;;;;;;5.66;59.98;100329.00;673181;29;1224;-87
2023/12/06 01:39:14;;;;;;;13.07;8.50;;;;;;;5.71;59.98;100335.25;671932;29;1341;-87
2023/12/06 01:39:35;;;;;;;13.68;8.07;;;;;;;5.73;59.87;100340.47;669425;29;1198;-89
2023/12/06 01:39:55;;;;;;;14.43;7.78;;;;;;;5.73;59.74;100328.44;672023;29;1276;-88
2023/12/06 01:40:16;;;;;;;14.70;8.00;;;;;;;5.66;59.96;100334.19;669568;29;1225;-86
2023/12/06 01:40:38;;;;;;;12.57;8.00;;;;;;;5.64;60.05;100335.81;669153;29;1219;-88
2023/12/06 01:40:59;;;;;;;11.30;8.20;;;;;;;5.66;59.77;100328.09;669624;29;797;-88
2023/12/06 01:41:19;;;;;;;13.60;8.10;;;;;;;5.65;59.92;100329.78;671861;29;1374;-87
2023/12/06 01:41:40;;;;;;;13.88;7.60;;;;;;;5.60;59.86;100328.75;669997;29;1252;-87
2023/12/06 01:42:02;;;;;;;16.23;8.25;;;;;;;5.67;59.93;100335.06;672295;29;891;-88
2023/12/06 01:42:22;;;;;;;13.35;7.95;;;;;;;5.65;59.70;100316.84;673448;29;1169;-88
2023/12/06 01:42:46;;;;;;;12.63;8.10;;;;;;;5.60;59.83;100332.19;672984;29;1280;-87
2023/12/06 01:43:08;;;;;;;12.52;7.63;;;;;;;5.65;60.19;100328.94;679758;29;1259;-87